Weather at Snowy Range Airfield

Public forecast

Using degrees Celsius for public forecast. Weather courtesy of forecast.io.

Closest aviation weather report (METAR) to Snowy Range Airfield

Closest report is Wangaratta Airport, 60.2 nm (111.5 km) NNW. Retrieved 2021/07/28 15:00 UTC (58 minutes ago):

YWGT 281500Z AUTO 29011KT 9999 // NCD 07/04 Q1010

Closest aviation forecast (TAF) to Snowy Range Airfield

Forecast is more than 12 hours old.

Closest forecast is Wangaratta Airport, 60.2 nm (111.5 km) NNW. Retrieved 2021/07/27 20:33 UTC (19 hours ago):

TAF TAF YWGT 271900Z 2720/2808 03010KT 9999 -RA NSC BECMG 2723/2801 35012KT 9999 NSW FEW015 BKN025 BECMG 2802/2803 31014KT 9999 -SHRA SCT040 BKN050 INTER 2802/2808 29020G32KT 4000 SHRA SCT015 BKN035 PROB30 INTER 2806/2808 29030G45KT 2000 TSRA BKN015 SCT035CB